Time;durP1;ratioP1;P1;durP2;ratioP2;P2;SDS_P1;SDS_P2;PMS_P1;PMS_P2;Temp;Humidity;BMP_temperature;BMP_pressure;BME280_temperature;BME280_humidity;BME280_pressure;Samples;Min_cycle;Max_cycle;Signal;HPM_P1;HPM_P2
2022/07/25 00:00:53;;;;;;;4.85;3.60;;;22.50;99.90;;;;;;4995690;28;20042;-74
2022/07/25 00:03:20;;;;;;;4.22;3.80;;;22.40;99.90;;;;;;4995697;28;20034;-75
2022/07/25 00:05:46;;;;;;;7.85;3.63;;;22.40;99.90;;;;;;4995448;28;20081;-76
2022/07/25 00:08:11;;;;;;;3.85;3.40;;;22.40;99.90;;;;;;4977760;28;20151;-75
2022/07/25 00:10:37;;;;;;;5.00;3.53;;;22.40;99.90;;;;;;4995281;28;20046;-77
2022/07/25 00:13:03;;;;;;;5.40;3.88;;;22.40;99.90;;;;;;4978070;28;20038;-76
2022/07/25 00:15:29;;;;;;;4.80;3.50;;;22.40;99.90;;;;;;4977889;28;20042;-78
2022/07/25 00:17:55;;;;;;;5.22;4.00;;;22.40;99.90;;;;;;4977775;28;20085;-77
2022/07/25 00:20:21;;;;;;;5.68;4.10;;;22.40;99.90;;;;;;4961655;28;20054;-77
2022/07/25 00:22:47;;;;;;;5.03;3.53;;;22.40;99.90;;;;;;4995364;28;20186;-74
2022/07/25 00:25:13;;;;;;;4.60;3.50;;;22.40;99.90;;;;;;4977813;28;20030;-78
2022/07/25 00:27:39;;;;;;;4.70;3.78;;;22.30;99.90;;;;;;4975782;28;20392;-79
2022/07/25 00:30:05;;;;;;;5.32;3.88;;;22.30;99.90;;;;;;4995017;28;20034;-74
2022/07/25 00:32:31;;;;;;;4.40;4.00;;;22.30;99.90;;;;;;4995191;28;20045;-77
2022/07/25 00:34:57;;;;;;;6.25;3.72;;;22.30;99.90;;;;;;4977559;28;20047;-76
2022/07/25 00:37:22;;;;;;;4.82;3.97;;;22.20;99.90;;;;;;4995472;28;20039;-77
2022/07/25 00:39:48;;;;;;;4.70;3.53;;;22.20;99.90;;;;;;4977235;28;20042;-75
2022/07/25 00:42:15;;;;;;;5.95;4.18;;;22.20;99.90;;;;;;4960409;28;20042;-79
2022/07/25 00:44:40;;;;;;;6.35;4.50;;;22.10;99.90;;;;;;4977368;28;20532;-78
2022/07/25 00:47:06;;;;;;;5.18;4.15;;;22.00;99.90;;;;;;4995005;28;20046;-78
2022/07/25 00:49:32;;;;;;;6.07;4.97;;;22.00;99.90;;;;;;4977251;28;20078;-74
2022/07/25 00:51:59;;;;;;;5.32;4.32;;;21.90;99.90;;;;;;4961105;28;20104;-75
2022/07/25 00:54:25;;;;;;;7.03;4.75;;;21.90;99.90;;;;;;4977097;28;20137;-75
2022/07/25 00:56:51;;;;;;;4.55;3.90;;;21.90;99.90;;;;;;4974620;28;20608;-78
2022/07/25 00:59:17;;;;;;;5.82;4.70;;;21.90;99.90;;;;;;4977020;28;20046;-77
2022/07/25 01:01:46;;;;;;;5.47;4.57;;;21.80;99.90;;;;;;4977043;28;20061;-78
2022/07/25 01:04:12;;;;;;;6.00;5.25;;;21.80;99.90;;;;;;4977104;28;20042;-76
2022/07/25 01:06:38;;;;;;;6.95;4.60;;;21.80;99.90;;;;;;4977057;28;20047;-71
2022/07/25 01:09:06;;;;;;;7.05;4.53;;;21.80;99.90;;;;;;4976740;28;20062;-77
2022/07/25 01:11:32;;;;;;;6.65;4.78;;;21.80;99.90;;;;;;4977204;28;20065;-77
2022/07/25 01:13:58;;;;;;;7.28;5.22;;;21.80;99.90;;;;;;4960752;28;20034;-76
2022/07/25 01:16:24;;;;;;;8.57;5.10;;;21.80;99.90;;;;;;4994109;28;20042;-76
2022/07/25 01:18:50;;;;;;;6.00;4.60;;;21.80;99.90;;;;;;4994274;28;20034;-75
2022/07/25 01:21:16;;;;;;;7.60;5.70;;;21.90;99.90;;;;;;4976887;28;20456;-76
2022/07/25 01:23:42;;;;;;;5.78;5.10;;;21.80;99.90;;;;;;4976662;28;20050;-71
2022/07/25 01:26:07;;;;;;;5.50;5.00;;;21.80;99.90;;;;;;4976288;28;20045;-71
2022/07/25 01:28:34;;;;;;;5.47;4.85;;;21.70;99.90;;;;;;4974687;28;20049;-69
2022/07/25 01:31:00;;;;;;;6.50;5.28;;;21.60;99.90;;;;;;4994030;28;20043;-71
2022/07/25 01:33:26;;;;;;;5.78;5.18;;;21.60;99.90;;;;;;4993849;28;20050;-73
2022/07/25 01:35:52;;;;;;;8.20;5.32;;;21.50;99.90;;;;;;4993851;28;20050;-71
2022/07/25 01:38:18;;;;;;;7.90;6.07;;;21.40;99.90;;;;;;4976571;28;20045;-71
2022/07/25 01:40:44;;;;;;;6.28;5.57;;;21.30;99.90;;;;;;4970812;28;20520;-71
2022/07/25 01:43:10;;;;;;;6.78;5.28;;;21.20;99.90;;;;;;4976268;28;20053;-71
2022/07/25 01:45:36;;;;;;;7.57;6.22;;;21.10;99.90;;;;;;4976240;28;20603;-71
2022/07/25 01:48:03;;;;;;;7.28;5.40;;;21.10;99.90;;;;;;4976181;28;20125;-70
2022/07/25 01:50:29;;;;;;;6.63;5.93;;;21.10;99.90;;;;;;4960188;28;20120;-71
2022/07/25 01:52:55;;;;;;;7.63;5.95;;;21.00;99.90;;;;;;4975950;28;20423;-71
2022/07/25 01:55:21;;;;;;;8.55;6.57;;;20.90;99.90;;;;;;4972997;28;20469;-70
2022/07/25 01:57:47;;;;;;;6.82;6.13;;;20.90;99.90;;;;;;4973532;28;20078;-71
2022/07/25 02:00:14;;;;;;;7.28;5.80;;;20.80;99.90;;;;;;4960089;28;20048;-71
2022/07/25 02:02:42;;;;;;;7.22;6.47;;;20.80;99.90;;;;;;4976014;28;20038;-71
2022/07/25 02:05:10;;;;;;;8.48;6.95;;;20.70;99.90;;;;;;4993197;28;20053;-71
2022/07/25 02:07:36;;;;;;;11.55;7.38;;;20.70;99.90;;;;;;4979161;28;20412;-70
2022/07/25 02:10:04;;;;;;;7.75;6.45;;;20.60;99.90;;;;;;5012647;28;20496;-71
2022/07/25 02:12:30;;;;;;;7.70;6.20;;;20.60;99.90;;;;;;4995471;28;20084;-71
2022/07/25 02:14:56;;;;;;;8.20;5.72;;;20.60;99.90;;;;;;4994957;28;20530;-70
2022/07/25 02:17:22;;;;;;;9.65;6.43;;;20.50;99.90;;;;;;4978758;28;20041;-71
2022/07/25 02:19:48;;;;;;;7.63;6.88;;;20.50;99.90;;;;;;5012528;28;20177;-71
2022/07/25 02:22:13;;;;;;;7.13;6.32;;;20.40;99.90;;;;;;5012496;28;20112;-73
2022/07/25 02:24:39;;;;;;;6.72;6.03;;;20.30;99.90;;;;;;4995078;28;20049;-72
2022/07/25 02:27:05;;;;;;;7.32;6.18;;;20.30;99.90;;;;;;5010365;28;20041;-71
2022/07/25 02:29:31;;;;;;;7.70;6.90;;;20.20;99.90;;;;;;4995170;28;20033;-71
2022/07/25 02:31:57;;;;;;;6.97;6.28;;;20.20;99.90;;;;;;5012337;28;20480;-72
2022/07/25 02:34:23;;;;;;;8.68;6.70;;;20.20;99.90;;;;;;5012214;28;20048;-72
2022/07/25 02:36:49;;;;;;;11.85;6.97;;;20.10;99.90;;;;;;4994660;28;20045;-71
2022/07/25 02:39:15;;;;;;;8.07;6.80;;;20.10;99.90;;;;;;5005925;28;20050;-71
2022/07/25 02:41:42;;;;;;;7.63;6.35;;;20.10;99.90;;;;;;4992802;28;20046;-72
2022/07/25 02:44:08;;;;;;;7.63;5.78;;;20.10;99.90;;;;;;4975488;28;20051;-72
2022/07/25 02:46:34;;;;;;;6.70;5.95;;;20.10;99.90;;;;;;4959298;28;20085;-71
2022/07/25 02:49:00;;;;;;;7.18;6.47;;;20.10;99.90;;;;;;4975347;28;20088;-72
2022/07/25 02:51:26;;;;;;;10.63;6.30;;;20.10;99.90;;;;;;4993057;28;20042;-73
2022/07/25 02:53:52;;;;;;;8.30;6.13;;;20.10;99.90;;;;;;4976224;28;20491;-73
2022/07/25 02:56:18;;;;;;;7.95;6.60;;;20.10;99.90;;;;;;4974513;28;20038;-71
2022/07/25 02:58:43;;;;;;;7.82;6.68;;;20.10;99.90;;;;;;4992980;28;20038;-72
2022/07/25 03:01:09;;;;;;;7.40;6.70;;;20.10;99.90;;;;;;4976225;28;20049;-72
2022/07/25 03:03:35;;;;;;;8.27;6.35;;;20.00;99.90;;;;;;4975899;28;20515;-71
2022/07/25 03:06:01;;;;;;;8.98;7.20;;;20.10;99.90;;;;;;4992789;28;20049;-73
2022/07/25 03:08:27;;;;;;;8.30;7.43;;;20.00;99.90;;;;;;4993274;28;20528;-76
2022/07/25 03:10:53;;;;;;;11.85;8.18;;;20.00;99.90;;;;;;4975902;28;20469;-72
2022/07/25 03:13:19;;;;;;;9.30;7.85;;;20.00;99.90;;;;;;4993169;28;20046;-72
2022/07/25 03:15:45;;;;;;;9.35;7.75;;;20.00;99.90;;;;;;4975956;28;20109;-73
2022/07/25 03:18:11;;;;;;;8.90;8.02;;;20.00;99.90;;;;;;4975708;28;20042;-74
2022/07/25 03:20:36;;;;;;;8.80;7.80;;;20.00;99.90;;;;;;4993506;28;20042;-75
2022/07/25 03:23:02;;;;;;;10.20;8.02;;;20.00;99.90;;;;;;4975704;28;20125;-75
2022/07/25 03:25:28;;;;;;;8.30;7.30;;;19.90;99.90;;;;;;4993385;28;20038;-73
2022/07/25 03:27:55;;;;;;;10.63;7.72;;;19.90;99.90;;;;;;4973415;28;20388;-73
2022/07/25 03:30:21;;;;;;;10.95;7.80;;;19.90;99.90;;;;;;4976230;28;20413;-77
2022/07/25 03:32:47;;;;;;;9.57;8.57;;;19.90;99.90;;;;;;4959726;28;20096;-74
2022/07/25 03:35:14;;;;;;;12.02;9.07;;;19.90;99.90;;;;;;4975898;28;20039;-74
2022/07/25 03:37:40;;;;;;;12.77;8.27;;;19.90;99.90;;;;;;4992944;28;20049;-75
2022/07/25 03:40:06;;;;;;;11.30;9.45;;;19.90;99.90;;;;;;4975715;28;20426;-74
2022/07/25 03:42:32;;;;;;;10.18;8.55;;;19.90;99.90;;;;;;4975644;28;20101;-75
2022/07/25 03:44:58;;;;;;;10.93;9.43;;;19.90;99.90;;;;;;4975738;28;20039;-73
2022/07/25 03:47:24;;;;;;;10.93;9.18;;;19.90;99.90;;;;;;4992743;28;20447;-74
2022/07/25 03:49:50;;;;;;;12.38;9.82;;;19.90;99.90;;;;;;4975663;28;20146;-74
2022/07/25 03:52:16;;;;;;;12.23;8.95;;;19.90;99.90;;;;;;4993055;28;20401;-75
2022/07/25 03:54:42;;;;;;;13.45;9.02;;;19.90;99.90;;;;;;4975421;28;20042;-72
2022/07/25 03:57:09;;;;;;;9.70;8.70;;;19.90;99.90;;;;;;4973213;28;20042;-72
2022/07/25 03:59:35;;;;;;;10.57;9.15;;;19.90;99.90;;;;;;4975365;28;20042;-72
2022/07/25 04:02:00;;;;;;;11.75;9.75;;;19.80;99.90;;;;;;4959295;28;20042;-73
2022/07/25 04:04:26;;;;;;;10.57;9.50;;;19.80;99.90;;;;;;4992630;28;20503;-72
2022/07/25 04:06:52;;;;;;;11.25;9.43;;;19.80;99.90;;;;;;4959249;28;20046;-72
2022/07/25 04:09:18;;;;;;;9.65;8.30;;;19.80;99.90;;;;;;4975224;28;20062;-73
2022/07/25 04:11:44;;;;;;;14.20;9.77;;;19.80;99.90;;;;;;4992812;28;20054;-72
2022/07/25 04:14:10;;;;;;;11.32;9.02;;;19.90;99.90;;;;;;4992817;28;20046;-74
2022/07/25 04:16:36;;;;;;;14.57;9.13;;;19.90;99.90;;;;;;4975420;28;20042;-74
2022/07/25 04:19:03;;;;;;;10.35;8.30;;;19.90;99.90;;;;;;4978653;28;20461;-74
2022/07/25 04:21:29;;;;;;;9.88;8.88;;;19.90;99.90;;;;;;4962750;28;20042;-75
2022/07/25 04:23:55;;;;;;;11.40;8.70;;;20.00;99.90;;;;;;4996631;28;20121;-75
2022/07/25 04:26:21;;;;;;;11.25;10.02;;;20.00;99.90;;;;;;4977235;28;20374;-75
2022/07/25 04:28:47;;;;;;;11.23;9.73;;;20.00;99.90;;;;;;4995861;28;20046;-75
2022/07/25 04:31:13;;;;;;;10.38;8.65;;;20.10;99.90;;;;;;4996082;28;20100;-72
2022/07/25 04:33:40;;;;;;;12.35;9.43;;;20.10;99.90;;;;;;4995864;28;20042;-75
2022/07/25 04:36:06;;;;;;;11.70;9.07;;;20.20;99.90;;;;;;4962567;28;20481;-73
2022/07/25 04:38:32;;;;;;;9.82;8.68;;;20.20;99.90;;;;;;4996388;28;20034;-75
2022/07/25 04:40:58;;;;;;;10.00;8.55;;;20.20;99.90;;;;;;4962461;28;20034;-73
2022/07/25 04:43:24;;;;;;;11.80;9.82;;;20.20;99.90;;;;;;4978560;28;20042;-73
2022/07/25 04:45:50;;;;;;;12.95;9.57;;;20.30;99.90;;;;;;4978330;28;20404;-73
2022/07/25 04:48:16;;;;;;;11.57;9.35;;;20.30;99.90;;;;;;4978147;28;20038;-73
2022/07/25 04:50:42;;;;;;;10.23;8.40;;;20.30;99.90;;;;;;4978216;28;20046;-73
2022/07/25 04:53:08;;;;;;;12.02;9.55;;;20.40;99.90;;;;;;4995568;28;20047;-72
2022/07/25 04:55:35;;;;;;;12.60;9.50;;;20.50;99.90;;;;;;4995813;28;20042;-73
2022/07/25 04:58:01;;;;;;;11.35;8.45;;;20.50;99.90;;;;;;4959617;28;20043;-73
2022/07/25 05:00:27;;;;;;;11.00;8.82;;;20.60;99.90;;;;;;4962052;28;20458;-73
2022/07/25 05:02:53;;;;;;;9.18;8.27;;;20.60;99.90;;;;;;4977968;28;20117;-73
2022/07/25 05:05:19;;;;;;;13.73;9.75;;;20.60;99.90;;;;;;4978275;28;20074;-72
2022/07/25 05:07:45;;;;;;;10.68;9.05;;;20.70;99.90;;;;;;4977655;28;20129;-72
2022/07/25 05:10:12;;;;;;;12.23;10.00;;;20.70;99.90;;;;;;4995542;28;20051;-73
2022/07/25 05:12:37;;;;;;;10.23;9.23;;;20.80;99.90;;;;;;4995354;28;20065;-73
2022/07/25 05:15:04;;;;;;;11.43;9.38;;;20.80;99.90;;;;;;4977623;28;20477;-74
2022/07/25 05:17:30;;;;;;;11.30;8.77;;;20.80;99.90;;;;;;4961914;28;20061;-72
2022/07/25 05:19:59;;;;;;;10.52;9.27;;;20.80;99.90;;;;;;4995283;28;20035;-73
2022/07/25 05:22:24;;;;;;;11.68;10.13;;;20.80;99.90;;;;;;4977568;28;20050;-74
2022/07/25 05:24:50;;;;;;;10.73;9.15;;;20.80;99.90;;;;;;4994929;28;20125;-73
2022/07/25 05:27:16;;;;;;;9.82;8.82;;;20.80;99.90;;;;;;4992461;28;20054;-73
2022/07/25 05:29:42;;;;;;;10.55;9.45;;;20.80;99.90;;;;;;4960239;28;20042;-73
2022/07/25 05:32:07;;;;;;;11.48;9.57;;;20.90;99.90;;;;;;4993925;28;20508;-73
2022/07/25 05:34:34;;;;;;;11.75;9.25;;;20.90;99.90;;;;;;4976427;28;20129;-76
2022/07/25 05:37:00;;;;;;;11.77;9.32;;;21.00;99.90;;;;;;4960671;28;20042;-74
2022/07/25 05:39:26;;;;;;;11.50;9.55;;;21.00;99.90;;;;;;4993597;28;20094;-73
2022/07/25 05:41:51;;;;;;;12.38;9.98;;;21.00;99.90;;;;;;4976359;28;20042;-74
2022/07/25 05:44:17;;;;;;;11.73;9.02;;;21.10;99.90;;;;;;4960597;28;20042;-73
2022/07/25 05:46:43;;;;;;;14.48;9.40;;;21.10;99.90;;;;;;4976270;28;20046;-73
2022/07/25 05:49:09;;;;;;;10.93;9.27;;;21.20;99.90;;;;;;4993766;28;20122;-73
2022/07/25 05:51:35;;;;;;;11.73;9.18;;;21.20;99.90;;;;;;4976420;28;20053;-72
2022/07/25 05:54:01;;;;;;;10.38;8.98;;;21.30;99.90;;;;;;4993514;28;20050;-72
2022/07/25 05:56:28;;;;;;;11.30;9.05;;;21.30;99.90;;;;;;4973716;28;20456;-73
2022/07/25 05:58:54;;;;;;;10.02;8.88;;;21.30;99.90;;;;;;4975915;28;20524;-73
2022/07/25 06:01:20;;;;;;;10.20;9.20;;;21.40;99.90;;;;;;4976324;28;20046;-73
2022/07/25 06:03:48;;;;;;;11.32;10.13;;;21.40;99.90;;;;;;4980498;28;20728;-70
2022/07/25 06:06:13;;;;;;;13.02;9.50;;;21.40;99.90;;;;;;4997055;28;20125;-73
2022/07/25 06:08:39;;;;;;;13.45;9.35;;;21.50;99.90;;;;;;4988299;28;20136;-73
2022/07/25 06:11:06;;;;;;;13.05;9.10;;;21.50;99.90;;;;;;4996129;28;20464;-73
2022/07/25 06:13:33;;;;;;;11.73;9.00;;;21.50;99.90;;;;;;5013254;28;20061;-72
2022/07/25 06:15:58;;;;;;;10.60;9.50;;;21.60;99.90;;;;;;4995846;28;20038;-72
2022/07/25 06:18:25;;;;;;;12.82;9.13;;;21.60;99.90;;;;;;5013427;28;20038;-72
2022/07/25 06:20:51;;;;;;;12.23;9.88;;;21.70;99.90;;;;;;4996105;28;20388;-72
2022/07/25 06:23:17;;;;;;;12.93;10.48;;;21.70;99.90;;;;;;5013500;28;20456;-72
2022/07/25 06:25:44;;;;;;;11.43;9.75;;;21.70;99.90;;;;;;5013449;28;20149;-73
2022/07/25 06:28:12;;;;;;;11.57;10.38;;;21.70;99.90;;;;;;4993588;28;20041;-72
2022/07/25 06:30:38;;;;;;;11.27;10.18;;;21.70;99.90;;;;;;4979852;28;20038;-73
2022/07/25 06:33:04;;;;;;;12.00;10.23;;;21.70;99.90;;;;;;5013078;28;20543;-73
2022/07/25 06:35:30;;;;;;;12.32;11.00;;;21.70;99.90;;;;;;5013354;28;20069;-72
2022/07/25 06:37:55;;;;;;;13.75;10.60;;;21.90;99.90;;;;;;4995575;28;20037;-72
2022/07/25 06:40:21;;;;;;;14.13;10.77;;;22.20;99.90;;;;;;4991673;28;20042;-72
2022/07/25 06:42:47;;;;;;;12.43;10.73;;;22.40;99.90;;;;;;5009820;28;20476;-72
2022/07/25 06:45:14;;;;;;;16.92;11.65;;;22.60;99.90;;;;;;5013150;28;20474;-73
2022/07/25 06:47:41;;;;;;;13.77;11.60;;;22.70;99.90;;;;;;4995563;28;20095;-72
2022/07/25 06:50:10;;;;;;;15.32;12.27;;;22.70;99.90;;;;;;5013198;28;20046;-73
2022/07/25 06:52:36;;;;;;;13.73;11.27;;;22.70;99.90;;;;;;4995446;28;20053;-74
2022/07/25 06:55:03;;;;;;;12.90;10.80;;;22.70;99.90;;;;;;4995255;28;20042;-76
2022/07/25 06:57:29;;;;;;;14.23;10.60;;;22.70;99.90;;;;;;5010726;28;20041;-72
2022/07/25 06:59:55;;;;;;;13.48;11.23;;;22.80;99.90;;;;;;4995126;28;20041;-74
2022/07/25 07:02:21;;;;;;;12.82;11.32;;;23.00;99.90;;;;;;4990890;28;20103;-72
2022/07/25 07:04:47;;;;;;;13.07;11.57;;;23.50;99.90;;;;;;4993580;28;20125;-74
2022/07/25 07:07:13;;;;;;;14.45;10.70;;;23.80;99.90;;;;;;5012553;28;20112;-73
2022/07/25 07:09:39;;;;;;;12.43;10.35;;;24.20;99.90;;;;;;4945958;28;20517;-74
2022/07/25 07:12:05;;;;;;;11.95;9.85;;;24.70;99.90;;;;;;4973637;28;20085;-75
2022/07/25 07:14:31;;;;;;;10.98;9.00;;;25.00;99.90;;;;;;4956458;28;20042;-75
2022/07/25 07:16:57;;;;;;;9.43;8.45;;;24.90;99.90;;;;;;4973840;28;20469;-74
2022/07/25 07:19:23;;;;;;;8.23;7.38;;;24.80;99.90;;;;;;4956778;28;20035;-74
2022/07/25 07:21:50;;;;;;;8.15;6.70;;;24.60;99.90;;;;;;4956796;28;20457;-74
2022/07/25 07:24:17;;;;;;;7.65;5.68;;;24.50;99.90;;;;;;4985539;28;20507;-74
2022/07/25 07:26:42;;;;;;;7.28;5.30;;;24.40;99.90;;;;;;4971441;28;20085;-73
2022/07/25 07:29:08;;;;;;;6.72;3.80;;;24.50;99.90;;;;;;4980826;28;20117;-74
2022/07/25 07:31:34;;;;;;;4.82;3.03;;;24.80;99.90;;;;;;4993151;28;20046;-73
2022/07/25 07:34:01;;;;;;;3.47;2.58;;;25.20;99.90;;;;;;4975535;28;20583;-73
2022/07/25 07:36:27;;;;;;;4.10;3.08;;;25.60;99.90;;;;;;4975604;28;20049;-73
2022/07/25 07:38:54;;;;;;;5.13;2.60;;;25.70;99.90;;;;;;4972628;28;20056;-72
2022/07/25 07:41:20;;;;;;;3.90;2.13;;;25.60;99.90;;;;;;4980718;28;20393;-72
2022/07/25 07:43:46;;;;;;;3.85;2.40;;;25.50;99.90;;;;;;4959453;28;20121;-73
2022/07/25 07:46:12;;;;;;;3.33;2.13;;;25.30;99.90;;;;;;4993098;28;20046;-74
2022/07/25 07:48:38;;;;;;;6.15;1.85;;;25.10;99.90;;;;;;4959327;28;20046;-74
2022/07/25 07:51:04;;;;;;;2.53;1.60;;;24.90;99.90;;;;;;4993276;28;20034;-76
2022/07/25 07:56:17;;;;;;;5.15;1.90;;;24.80;99.90;;;;;;4996724;28;20038;-73
2022/07/25 07:58:44;;;;;;;2.67;1.73;;;24.90;99.90;;;;;;4995074;28;20034;-72
2022/07/25 08:01:10;;;;;;;2.95;1.60;;;25.00;99.90;;;;;;4979104;28;20042;-73
2022/07/25 08:03:37;;;;;;;4.22;2.13;;;25.00;99.90;;;;;;4996614;28;20117;-76
2022/07/25 08:06:03;;;;;;;2.45;1.58;;;24.80;99.90;;;;;;4979128;28;20042;-73
2022/07/25 08:08:29;;;;;;;4.68;1.85;;;24.60;99.90;;;;;;4996238;28;20050;-73
2022/07/25 08:10:55;;;;;;;2.60;2.00;;;24.30;99.90;;;;;;4996615;28;20568;-72
2022/07/25 08:13:26;;;;;;;4.20;2.03;;;24.00;99.90;;;;;;4978902;28;20073;-73
2022/07/25 08:15:56;;;;;;;3.63;2.10;;;23.80;99.90;;;;;;4979071;28;20093;-75
2022/07/25 08:18:23;;;;;;;5.22;2.50;;;23.60;99.90;;;;;;4967174;28;20038;-74
2022/07/25 08:20:50;;;;;;;2.97;2.20;;;23.50;99.90;;;;;;4943399;28;20130;-75
2022/07/25 08:23:17;;;;;;;4.53;2.53;;;23.30;99.90;;;;;;4959281;28;20482;-75
2022/07/25 08:25:43;;;;;;;6.10;2.22;;;23.10;99.90;;;;;;4959565;28;20449;-73
2022/07/25 08:28:10;;;;;;;5.13;2.08;;;23.00;99.90;;;;;;4957778;28;20113;-77
2022/07/25 08:30:37;;;;;;;4.30;2.33;;;22.90;99.90;;;;;;4976572;28;20105;-74
2022/07/25 08:33:06;;;;;;;3.80;2.40;;;22.80;99.90;;;;;;4959454;28;20045;-75
2022/07/25 08:35:33;;;;;;;4.18;2.67;;;22.90;99.90;;;;;;4976431;28;20037;-76
2022/07/25 08:38:00;;;;;;;5.55;2.50;;;22.90;99.90;;;;;;4959264;28;20036;-73
2022/07/25 08:40:27;;;;;;;3.40;2.13;;;23.00;99.90;;;;;;4971245;28;20079;-75
2022/07/25 08:42:53;;;;;;;5.10;2.20;;;23.10;99.90;;;;;;4976465;28;20047;-75
2022/07/25 08:45:20;;;;;;;5.07;2.10;;;23.20;99.90;;;;;;4958880;28;20125;-75
2022/07/25 08:47:49;;;;;;;5.47;2.10;;;23.40;99.90;;;;;;4958953;28;20050;-73
2022/07/25 08:50:18;;;;;;;3.63;1.88;;;23.60;99.90;;;;;;4974985;28;20101;-75
2022/07/25 08:52:48;;;;;;;4.03;2.10;;;23.70;99.90;;;;;;4975361;28;20393;-74
2022/07/25 08:55:24;;;;;;;5.40;2.28;;;23.70;99.90;;;;;;4974994;28;20043;-74
2022/07/25 08:57:52;;;;;;;4.38;2.33;;;23.60;99.90;;;;;;4956818;28;20047;-74
2022/07/25 09:00:21;;;;;;;3.80;2.20;;;23.50;99.90;;;;;;4974746;28;20047;-73
2022/07/25 09:02:59;;;;;;;6.78;2.20;;;23.60;99.90;;;;;;4957982;28;20050;-73
2022/07/25 09:05:26;;;;;;;3.05;1.70;;;23.70;99.90;;;;;;4958532;28;20054;-75
2022/07/25 09:07:53;;;;;;;3.55;1.90;;;23.80;99.90;;;;;;4963824;28;20072;-74
2022/07/25 09:10:20;;;;;;;3.38;1.45;;;24.00;99.90;;;;;;4978315;28;20046;-73
2022/07/25 09:13:01;;;;;;;3.63;1.80;;;24.00;99.90;;;;;;4995496;28;20038;-74
2022/07/25 09:15:35;;;;;;;4.68;1.73;;;24.10;99.90;;;;;;4977906;28;20042;-72
2022/07/25 09:18:04;;;;;;;2.50;1.50;;;24.10;99.90;;;;;;4995502;28;20045;-73
2022/07/25 09:20:49;;;;;;;3.80;1.85;;;24.20;99.90;;;;;;4995405;28;20113;-73
2022/07/25 09:23:26;;;;;;;4.35;1.80;;;24.20;99.90;;;;;;4989554;28;20392;-73
2022/07/25 09:26:02;;;;;;;4.20;2.28;;;24.10;99.90;;;;;;4977947;28;20057;-81
2022/07/25 09:28:28;;;;;;;4.05;1.95;;;24.20;99.90;;;;;;4976783;28;20398;-76
2022/07/25 09:30:59;;;;;;;4.47;2.00;;;24.40;99.90;;;;;;4995521;28;20068;-80
2022/07/25 09:33:26;;;;;;;4.10;2.00;;;24.50;99.90;;;;;;5002049;28;20665;-73
2022/07/25 09:35:54;;;;;;;4.25;2.00;;;24.40;99.90;;;;;;5014357;28;20041;-73
2022/07/25 09:38:20;;;;;;;5.20;1.60;;;24.20;99.90;;;;;;5014540;28;20038;-76
2022/07/25 09:40:57;;;;;;;4.00;2.10;;;24.10;99.90;;;;;;5014774;28;20038;-73
2022/07/25 09:43:38;;;;;;;5.13;1.95;;;23.90;99.90;;;;;;5014226;28;20046;-71
2022/07/25 09:46:06;;;;;;;6.28;2.13;;;23.80;99.90;;;;;;4996708;28;20045;-71
2022/07/25 09:48:32;;;;;;;5.18;2.00;;;24.00;99.90;;;;;;5014605;28;20038;-71
2022/07/25 09:51:02;;;;;;;5.68;1.80;;;24.00;99.90;;;;;;4996829;28;20129;-73
2022/07/25 09:53:28;;;;;;;6.20;2.00;;;24.00;99.90;;;;;;4996816;28;20101;-78
2022/07/25 09:55:55;;;;;;;4.70;1.52;;;24.10;99.90;;;;;;5014138;28;20492;-72
2022/07/25 09:58:28;;;;;;;4.13;1.90;;;24.10;99.90;;;;;;4994807;28;20377;-73
2022/07/25 10:01:04;;;;;;;4.22;2.10;;;24.10;99.90;;;;;;4996827;28;20045;-75
2022/07/25 10:03:51;;;;;;;6.82;2.13;;;24.00;99.90;;;;;;4984651;28;20049;-77
2022/07/25 10:06:29;;;;;;;6.65;2.25;;;23.70;99.90;;;;;;4969515;28;20042;-75
2022/07/25 10:08:56;;;;;;;6.50;2.63;;;23.40;99.90;;;;;;4985828;28;20566;-73
2022/07/25 10:11:24;;;;;;;8.25;2.97;;;23.20;99.90;;;;;;5014007;28;20399;-77
2022/07/25 10:13:51;;;;;;;12.60;2.83;;;23.00;99.90;;;;;;4996224;28;20042;-73
2022/07/25 10:16:20;;;;;;;7.53;2.22;;;22.90;99.90;;;;;;4995990;28;20119;-75
2022/07/25 10:18:54;;;;;;;7.70;2.10;;;22.90;99.90;;;;;;5013819;28;20038;-75
2022/07/25 10:21:22;;;;;;;5.70;2.20;;;22.80;99.90;;;;;;4968823;28;20042;-74
2022/07/25 10:24:06;;;;;;;5.60;2.63;;;22.90;99.90;;;;;;4976463;28;20050;-72
2022/07/25 10:26:38;;;;;;;11.38;2.65;;;23.10;99.90;;;;;;4974528;28;20050;-72
2022/07/25 10:29:09;;;;;;;6.97;2.38;;;23.20;99.90;;;;;;4993937;28;20181;-72
2022/07/25 10:31:43;;;;;;;6.45;2.63;;;23.40;99.90;;;;;;4976243;28;20050;-77
2022/07/25 10:34:09;;;;;;;5.30;2.22;;;23.60;99.90;;;;;;4960302;28;20045;-78
2022/07/25 10:36:47;;;;;;;10.43;2.60;;;23.60;99.90;;;;;;4993728;28;20074;-75
2022/07/25 10:39:15;;;;;;;8.93;2.90;;;23.80;99.90;;;;;;4982308;28;20038;-78
2022/07/25 10:42:01;;;;;;;6.30;2.55;;;24.10;99.90;;;;;;4996105;28;20042;-84
2022/07/25 10:44:39;;;;;;;7.90;2.58;;;24.00;99.90;;;;;;4996031;28;20442;-72
2022/07/25 10:47:06;;;;;;;7.78;2.42;;;23.80;99.90;;;;;;4995707;28;20053;-76
2022/07/25 10:49:36;;;;;;;8.02;3.22;;;23.70;99.90;;;;;;4995799;28;20084;-78
2022/07/25 10:52:03;;;;;;;7.05;2.95;;;23.60;99.90;;;;;;5013546;28;20117;-75
2022/07/25 10:54:53;;;;;;;9.40;3.03;;;23.50;99.90;;;;;;4995647;28;20172;-72
2022/07/25 10:57:19;;;;;;;9.95;3.10;;;23.40;99.90;;;;;;5011131;28;20454;-71
2022/07/25 10:59:45;;;;;;;6.68;3.08;;;23.50;99.90;;;;;;4995761;28;20117;-72
2022/07/25 11:02:15;;;;;;;8.07;2.80;;;23.60;99.90;;;;;;4979522;28;20152;-72
2022/07/25 11:04:42;;;;;;;9.43;3.05;;;23.70;99.90;;;;;;5013382;28;20404;-74
2022/07/25 11:07:14;;;;;;;6.65;2.20;;;23.60;99.90;;;;;;4995416;28;20047;-80
2022/07/25 11:09:42;;;;;;;7.68;2.05;;;23.50;99.90;;;;;;5013298;28;20111;-79
2022/07/25 11:12:14;;;;;;;9.25;2.95;;;23.30;99.90;;;;;;4995801;28;20046;-81
2022/07/25 11:14:41;;;;;;;5.90;2.15;;;23.20;99.90;;;;;;5012009;28;20392;-78
2022/07/25 11:17:13;;;;;;;8.52;2.53;;;23.20;99.90;;;;;;4995681;28;20584;-76
2022/07/25 11:19:43;;;;;;;9.20;2.67;;;23.30;99.90;;;;;;5012984;28;20480;-79
2022/07/25 11:22:10;;;;;;;6.60;2.80;;;23.40;99.90;;;;;;4995877;28;20048;-84
2022/07/25 11:24:41;;;;;;;9.00;2.30;;;23.50;99.90;;;;;;4979340;28;20681;-77
2022/07/25 11:27:10;;;;;;;6.82;2.20;;;23.60;99.90;;;;;;4995717;28;20041;-76
2022/07/25 11:29:37;;;;;;;6.88;3.33;;;23.70;99.90;;;;;;4999288;28;20046;-71
2022/07/25 11:32:10;;;;;;;6.93;2.25;;;23.80;99.90;;;;;;4999483;28;20125;-73
2022/07/25 11:34:41;;;;;;;7.35;2.08;;;23.80;99.90;;;;;;4998880;28;20128;-73
2022/07/25 11:37:10;;;;;;;8.55;2.08;;;23.70;99.90;;;;;;4982888;28;20038;-74
2022/07/25 11:39:38;;;;;;;6.78;2.72;;;23.50;99.90;;;;;;5015644;28;20485;-74
2022/07/25 11:42:09;;;;;;;5.68;2.10;;;23.30;99.90;;;;;;5015224;28;20126;-71
2022/07/25 11:44:44;;;;;;;7.22;2.20;;;23.30;99.90;;;;;;5016530;28;20045;-74
2022/07/25 11:47:23;;;;;;;5.38;2.65;;;23.20;99.90;;;;;;4999116;28;20045;-76
2022/07/25 11:49:51;;;;;;;8.27;2.75;;;23.40;99.90;;;;;;4999012;28;20145;-74
2022/07/25 11:52:20;;;;;;;6.72;2.70;;;23.40;99.90;;;;;;5016623;28;20388;-76
2022/07/25 11:54:52;;;;;;;;;;;23.40;99.90;;;;;;4983135;28;20129;-77
2022/07/25 11:57:26;;;;;;;5.68;2.40;;;23.30;99.90;;;;;;4981051;28;19917;-76
2022/07/25 11:59:54;;;;;;;7.32;2.67;;;23.40;99.90;;;;;;5016395;28;20034;-75
2022/07/25 12:02:33;;;;;;;4.97;2.35;;;23.60;99.90;;;;;;4998853;28;20040;-76
2022/07/25 12:05:10;;;;;;;6.50;2.10;;;23.70;99.90;;;;;;4998571;28;20042;-75
2022/07/25 12:07:45;;;;;;;7.90;2.58;;;23.70;99.90;;;;;;5016134;28;20054;-76
2022/07/25 12:10:21;;;;;;;7.57;2.25;;;23.70;99.90;;;;;;5031269;28;20045;-73
2022/07/25 12:12:54;;;;;;;7.30;2.63;;;23.70;99.90;;;;;;5016461;28;20058;-73
2022/07/25 12:15:23;;;;;;;8.13;2.40;;;23.60;99.90;;;;;;4998466;28;20618;-71
2022/07/25 12:17:51;;;;;;;9.63;2.35;;;23.50;99.90;;;;;;4998718;28;20081;-73
2022/07/25 12:20:23;;;;;;;8.43;2.50;;;23.60;99.90;;;;;;5031153;28;20136;-78
2022/07/25 12:22:51;;;;;;;7.15;3.05;;;23.70;99.90;;;;;;5015915;28;20038;-76
2022/07/25 12:25:18;;;;;;;5.97;2.38;;;23.70;99.90;;;;;;4982214;28;20041;-77
2022/07/25 12:27:44;;;;;;;7.90;2.30;;;23.70;99.90;;;;;;4996364;28;20060;-76
2022/07/25 12:30:11;;;;;;;6.25;2.40;;;23.70;99.90;;;;;;5015661;28;20104;-75
2022/07/25 12:32:37;;;;;;;9.10;2.58;;;23.80;99.90;;;;;;5015907;28;20038;-75
2022/07/25 12:35:05;;;;;;;5.90;2.30;;;23.80;99.90;;;;;;4998002;28;20041;-74
2022/07/25 12:37:31;;;;;;;7.22;2.75;;;23.80;99.90;;;;;;5015027;28;20041;-74
2022/07/25 12:39:57;;;;;;;7.22;2.55;;;23.70;99.90;;;;;;4986206;28;20041;-73
2022/07/25 12:42:24;;;;;;;8.35;3.33;;;23.50;99.90;;;;;;4978659;28;20042;-74
2022/07/25 12:44:50;;;;;;;5.78;3.15;;;23.40;99.90;;;;;;4995935;28;20470;-72
2022/07/25 12:47:16;;;;;;;5.93;2.55;;;23.30;99.90;;;;;;4996100;28;20045;-73